createdAt,value
2017-04-10T12:32:45.308Z,6232
2017-04-10T12:33:54.539Z,7320
2017-04-10T12:35:03.129Z,6988
2017-04-10T12:36:12.329Z,5156
2017-04-10T12:37:21.573Z,4856
2017-04-10T12:38:30.201Z,5056
2017-04-10T12:39:39.191Z,6296
2017-04-10T12:40:48.425Z,8296
2017-04-10T12:41:57.757Z,9448
2017-04-10T12:43:07.014Z,10108
2017-04-10T12:44:15.727Z,10148
2017-04-10T12:45:24.881Z,9664
2017-04-10T12:46:33.519Z,8392
2017-04-10T12:47:42.331Z,7356
2017-04-10T12:48:51.742Z,7036
2017-04-10T12:50:00.515Z,9540
2017-04-10T12:51:10.313Z,10340
2017-04-10T12:52:18.962Z,11132
2017-04-10T12:53:28.191Z,10772
2017-04-10T12:54:36.792Z,9996
2017-04-10T12:55:46.233Z,8652
2017-04-10T12:56:54.830Z,7932
2017-04-10T12:58:04.772Z,7532
2017-04-10T12:59:13.792Z,7380
2017-04-10T13:00:22.557Z,9216
2017-04-10T13:01:31.204Z,9848
2017-04-10T13:02:40.459Z,12080
2017-04-10T13:03:49.510Z,12132
2017-04-10T13:04:59.290Z,11940
2017-04-10T13:06:07.880Z,10096
2017-04-10T13:07:17.111Z,8632
2017-04-10T13:08:26.021Z,7764
2017-04-10T13:09:35.257Z,8004
2017-04-10T13:10:44.526Z,9232
2017-04-10T13:11:53.752Z,9036
2017-04-10T13:13:02.663Z,8900
2017-04-10T13:14:11.580Z,8976
2017-04-10T13:15:20.501Z,8364
2017-04-10T13:16:29.741Z,6732
2017-04-10T13:17:38.969Z,4956
2017-04-10T13:18:48.197Z,4020
2017-04-10T13:19:57.421Z,5648
2017-04-10T13:21:06.338Z,6092
2017-04-10T13:22:15.565Z,7876
2017-04-10T13:23:24.475Z,9792
2017-04-10T13:24:33.709Z,9840
2017-04-10T13:25:43.267Z,8308
2017-04-10T13:26:52.499Z,7940
2017-04-10T13:28:01.137Z,6716
2017-04-10T13:29:10.051Z,5944
2017-04-10T13:30:18.963Z,5332
2017-04-10T13:31:28.188Z,4988
2017-04-10T13:32:37.414Z,5216
2017-04-10T13:33:46.668Z,5356
2017-04-10T13:34:55.589Z,5552
2017-04-10T13:36:04.507Z,5732
2017-04-10T13:37:14.056Z,6228
2017-04-10T13:38:23.289Z,7408
2017-04-10T13:39:32.200Z,8212
2017-04-10T13:40:41.375Z,7492
2017-04-10T13:41:50.602Z,7636
2017-04-10T13:42:59.201Z,6404
2017-04-10T13:44:08.768Z,5348
2017-04-10T13:45:17.682Z,3584
2017-04-10T13:46:26.918Z,3376
2017-04-10T13:47:36.459Z,3540
2017-04-10T13:48:45.054Z,4920
2017-04-10T13:49:54.919Z,5036
2017-04-10T13:51:04.151Z,4120
2017-04-10T13:52:13.061Z,4264
2017-04-10T13:53:22.622Z,6080
2017-04-10T13:54:31.844Z,7120
2017-04-10T13:55:40.770Z,8740
2017-04-10T13:56:49.713Z,8476
2017-04-10T13:57:58.946Z,9112
2017-04-10T13:59:08.183Z,8804
2017-04-10T14:00:17.090Z,9196
2017-04-10T14:01:26.008Z,9108
2017-04-10T14:02:35.232Z,8352
2017-04-10T14:03:44.489Z,7684
2017-04-10T14:04:53.736Z,6860
2017-04-10T14:06:02.974Z,7228
2017-04-10T14:07:11.886Z,6660
2017-04-10T14:08:20.476Z,5300
2017-04-10T14:09:29.393Z,4868
2017-04-10T14:10:38.632Z,4856
2017-04-10T14:11:48.175Z,4912
2017-04-10T14:12:57.964Z,4312
2017-04-10T14:14:06.940Z,4284
2017-04-10T14:15:16.184Z,5720
2017-04-10T14:16:24.784Z,6628
2017-04-10T14:17:34.350Z,8272
2017-04-10T14:18:42.948Z,10836
2017-04-10T14:19:51.543Z,10844
2017-04-10T14:21:00.897Z,10068
2017-04-10T14:22:10.472Z,9428
2017-04-10T14:23:20.326Z,8020
2017-04-10T14:24:29.820Z,8108
2017-04-10T14:25:39.141Z,7956
2017-04-10T14:26:48.688Z,6600
2017-04-10T14:27:57.917Z,5440
2017-04-10T14:29:07.110Z,4932
2017-04-10T14:30:16.776Z,4452
2017-04-10T14:31:26.168Z,3764
2017-04-10T14:32:35.700Z,3432
2017-04-10T14:33:45.256Z,3408
2017-04-10T14:34:55.131Z,3764
2017-04-10T14:36:03.730Z,3780
2017-04-10T14:37:12.657Z,3868
2017-04-10T14:38:21.897Z,3964
2017-04-10T14:39:30.813Z,4528
2017-04-10T14:40:40.050Z,5288
2017-04-10T14:41:49.663Z,5844
2017-04-10T14:42:58.583Z,5336
2017-04-10T14:44:07.286Z,4868
2017-04-10T14:45:17.075Z,4552
2017-04-10T14:46:26.071Z,4740
2017-04-10T14:47:35.417Z,5172
2017-04-10T14:48:44.668Z,5476
2017-04-10T14:49:53.308Z,6024
2017-04-10T14:51:02.228Z,8320
2017-04-10T14:52:10.943Z,9340
2017-04-10T14:53:19.945Z,8956
2017-04-10T14:54:29.307Z,9036
2017-04-10T14:55:38.225Z,8972
2017-04-10T14:56:47.865Z,8768
2017-04-10T14:57:57.456Z,8284
2017-04-10T14:59:07.009Z,6716
2017-04-10T15:00:15.923Z,6440
2017-04-10T15:01:24.516Z,6796
2017-04-10T15:02:33.770Z,7516
2017-04-10T15:03:42.367Z,6984
2017-04-10T15:04:51.598Z,5552
2017-04-10T15:06:00.194Z,4528
2017-04-10T15:07:08.794Z,5648
2017-04-10T15:08:17.714Z,5904
2017-04-10T15:09:26.632Z,6636
2017-04-10T15:10:35.904Z,6428
2017-04-10T15:11:44.823Z,6700
2017-04-10T15:12:54.058Z,6756
2017-04-10T15:14:03.291Z,6052
2017-04-10T15:15:13.156Z,5656
2017-04-10T15:16:21.804Z,6360
2017-04-10T15:17:30.795Z,7192
2017-04-10T15:18:39.403Z,7744
2017-04-10T15:19:48.639Z,7960
2017-04-10T15:20:57.580Z,8484
2017-04-10T15:22:06.751Z,8040
2017-04-10T15:23:15.661Z,8932
2017-04-10T15:24:24.891Z,8776
2017-04-10T15:25:34.128Z,8796
2017-04-10T15:26:43.359Z,8540
2017-04-10T15:27:52.601Z,8260
2017-04-10T15:29:01.512Z,7680
2017-04-10T15:30:10.104Z,7916
2017-04-10T15:31:18.697Z,7560
2017-04-10T15:32:27.933Z,6504
2017-04-10T15:33:36.526Z,6068
2017-04-10T15:34:45.124Z,6412
2017-04-10T15:35:54.353Z,6956
2017-04-10T15:37:02.944Z,7060
2017-04-10T15:38:12.188Z,6724
2017-04-10T15:39:20.911Z,6684
2017-04-10T15:40:29.836Z,6928
2017-04-10T15:41:39.094Z,6936
2017-04-10T15:42:48.329Z,6600
2017-04-10T15:43:57.568Z,7760
2017-04-10T15:45:06.486Z,7588
2017-04-10T15:46:15.076Z,6508
2017-04-10T15:47:23.678Z,6924
2017-04-10T15:48:33.240Z,6504
2017-04-10T15:49:42.795Z,6448
2017-04-10T15:50:51.704Z,5552
2017-04-10T15:52:00.939Z,4828
2017-04-10T15:53:10.189Z,4496
2017-04-10T15:54:19.421Z,4520
2017-04-10T15:55:28.404Z,4992
2017-04-10T15:56:37.009Z,5700
2017-04-10T15:57:45.915Z,5836
2017-04-10T15:58:54.519Z,5048
2017-04-10T16:00:04.090Z,4528
2017-04-10T16:01:13.629Z,4576
2017-04-10T16:02:22.284Z,4020
2017-04-10T16:03:31.510Z,4008
2017-04-10T16:04:40.107Z,3472
2017-04-10T16:05:49.019Z,3672
2017-04-10T16:06:58.891Z,5164
2017-04-10T16:08:07.553Z,6808
2017-04-10T16:09:18.178Z,7100
2017-04-10T16:10:27.579Z,6468
2017-04-10T16:11:36.811Z,5836
2017-04-10T16:12:46.042Z,5724
2017-04-10T16:13:55.286Z,5888
2017-04-10T16:15:04.612Z,5800
2017-04-10T16:16:13.604Z,5428
2017-04-10T16:17:23.197Z,5400
2017-04-10T16:18:32.221Z,6100
2017-04-10T16:19:41.321Z,6424
2017-04-10T16:20:50.717Z,5856
2017-04-10T16:21:59.730Z,5536
2017-04-10T16:23:08.645Z,5728
2017-04-10T16:24:17.920Z,5380
2017-04-10T16:25:27.171Z,4944
2017-04-10T16:26:36.282Z,4516
2017-04-10T16:27:45.233Z,4656
2017-04-10T16:28:54.198Z,4684
2017-04-10T16:30:03.784Z,4616
2017-04-10T16:31:13.026Z,4544
2017-04-10T16:32:21.945Z,4316
2017-04-10T16:33:31.010Z,4096
2017-04-10T16:34:40.079Z,3972
2017-04-10T16:35:49.706Z,3860
2017-04-10T16:36:59.069Z,4412
2017-04-10T16:38:08.252Z,5024
2017-04-10T16:39:16.918Z,5320
2017-04-10T16:40:25.839Z,5264
2017-04-10T16:41:34.441Z,4772
2017-04-10T16:42:43.543Z,4568
2017-04-10T16:43:52.920Z,4560
2017-04-10T16:45:01.870Z,4696
2017-04-10T16:46:10.532Z,4496
2017-04-10T16:47:19.454Z,4196
2017-04-10T16:48:28.772Z,3976
2017-04-10T16:49:37.686Z,3760
2017-04-10T16:50:46.321Z,3644
2017-04-10T16:51:55.838Z,3764
2017-04-10T16:53:04.802Z,3316
2017-04-10T16:54:14.130Z,3292
2017-04-10T16:55:23.116Z,3320
2017-04-10T16:56:31.938Z,3392
2017-04-10T16:57:41.175Z,3444
2017-04-10T16:58:50.723Z,3388
2017-04-10T16:59:59.781Z,3400
2017-04-10T17:01:09.020Z,3340
2017-04-10T17:02:18.028Z,3288
2017-04-10T17:03:27.268Z,3360
2017-04-10T17:04:36.559Z,3356
2017-04-10T17:05:46.159Z,3312
2017-04-10T17:06:55.398Z,3220
2017-04-10T17:08:04.629Z,3072
2017-04-10T17:09:13.796Z,2876
2017-04-10T17:10:22.736Z,2708
2017-04-10T17:11:31.981Z,2548
2017-04-10T17:12:41.530Z,2408
2017-04-10T17:13:50.763Z,2304
2017-04-10T17:15:00.001Z,2232
2017-04-10T17:16:08.920Z,2208
2017-04-10T17:17:17.852Z,2112
2017-04-10T17:18:26.502Z,1940
2017-04-10T17:19:35.724Z,1848
2017-04-10T17:20:44.681Z,1788
2017-04-10T17:21:53.601Z,1744
2017-04-10T17:23:02.831Z,1732
2017-04-10T17:24:12.577Z,1704
2017-04-10T17:25:21.809Z,1644
2017-04-10T17:26:31.677Z,1608
2017-04-10T17:27:40.270Z,1600
2017-04-10T17:28:50.846Z,1616
2017-04-10T17:30:00.149Z,1632
2017-04-10T17:31:09.476Z,1644
2017-04-10T17:32:18.606Z,1620
2017-04-10T17:33:28.149Z,1560
2017-04-10T17:34:36.757Z,1476
2017-04-10T17:35:45.443Z,1380
2017-04-10T17:36:54.388Z,1352
2017-04-10T17:38:03.945Z,1312
2017-04-10T17:39:13.197Z,1220
2017-04-10T17:40:21.835Z,988
2017-04-10T17:41:30.472Z,860
2017-04-10T17:42:39.706Z,888
2017-04-10T17:43:48.624Z,1020
2017-04-10T17:44:58.515Z,1068
2017-04-10T17:46:07.840Z,1056
2017-04-10T17:47:16.526Z,1020
2017-04-10T17:48:25.631Z,932
2017-04-10T17:49:34.913Z,928
2017-04-10T17:50:43.602Z,940
2017-04-10T17:51:53.072Z,920
2017-04-10T17:53:02.669Z,888
2017-04-10T17:54:11.930Z,840
2017-04-10T17:55:21.734Z,808
2017-04-10T17:56:31.009Z,784
2017-04-10T17:57:40.412Z,772
2017-04-10T17:58:49.352Z,748
2017-04-10T17:59:58.080Z,732
2017-04-10T18:01:06.677Z,728
2017-04-10T18:02:15.692Z,692
2017-04-10T18:03:24.380Z,652
2017-04-10T18:04:33.302Z,612
2017-04-10T18:05:41.896Z,484
2017-04-10T18:06:50.814Z,436
2017-04-10T18:08:00.052Z,404
2017-04-10T18:09:08.959Z,384
2017-04-10T18:10:17.877Z,360
2017-04-10T18:11:26.788Z,332
2017-04-10T18:12:36.321Z,300
2017-04-10T18:13:45.234Z,276
2017-04-10T18:14:53.829Z,256
2017-04-10T18:16:03.060Z,236
2017-04-10T18:17:11.973Z,216
2017-04-10T18:18:20.932Z,200
2017-04-10T18:19:30.163Z,180
2017-04-10T18:20:39.405Z,164
2017-04-10T18:21:48.636Z,148
2017-04-10T18:22:57.595Z,132
2017-04-10T18:24:06.765Z,120
2017-04-10T18:25:15.689Z,108
2017-04-10T18:26:25.243Z,100
2017-04-10T18:27:34.470Z,92
2017-04-10T18:28:43.062Z,80
2017-04-10T18:29:51.938Z,76
2017-04-10T18:31:00.870Z,64
2017-04-10T18:32:10.143Z,56
2017-04-10T18:33:19.086Z,44
2017-04-10T18:34:28.256Z,40
2017-04-10T18:35:37.166Z,32
2017-04-10T18:36:46.407Z,28
2017-04-10T18:37:55.636Z,24
2017-04-10T18:39:04.993Z,20
2017-04-10T18:40:13.929Z,16
2017-04-10T18:41:22.526Z,12
2017-04-10T18:42:31.438Z,8
2017-04-10T18:43:40.667Z,12
2017-04-10T18:44:49.671Z,4
2017-04-10T18:45:58.640Z,4
2017-04-10T18:47:07.872Z,8
2017-04-10T18:48:16.786Z,4
2017-04-10T18:49:25.465Z,0
2017-04-10T18:50:34.455Z,4
2017-04-10T18:51:43.370Z,4
2017-04-10T18:52:52.379Z,0
2017-04-10T18:54:01.353Z,0
2017-04-10T18:55:10.326Z,0
2017-04-10T18:56:20.169Z,0
2017-04-10T18:57:29.085Z,0
2017-04-10T18:58:37.685Z,0
2017-04-10T18:59:46.690Z,0
2017-04-10T19:00:55.648Z,0
2017-04-10T19:02:04.572Z,0
2017-04-10T19:03:13.492Z,0
2017-04-10T19:04:22.086Z,0
2017-04-10T19:05:31.635Z,0
2017-04-10T19:06:40.629Z,0
2017-04-10T19:07:49.412Z,0
2017-04-10T19:08:58.644Z,0
2017-04-10T19:10:07.871Z,0
2017-04-10T19:11:17.270Z,0
2017-04-10T19:12:26.238Z,0
2017-04-10T19:13:35.786Z,0
2017-04-10T19:14:44.704Z,0
2017-04-10T19:15:53.629Z,0
2017-04-10T19:17:02.541Z,0
2017-04-10T19:18:11.375Z,0
2017-04-10T19:19:20.353Z,0
2017-04-10T19:20:29.649Z,0
2017-04-10T19:21:38.391Z,0
2017-04-10T19:22:47.670Z,0
2017-04-10T19:23:57.252Z,0
2017-04-10T19:25:06.308Z,0
2017-04-10T19:26:15.232Z,0
2017-04-10T19:27:24.484Z,0
2017-04-10T19:28:33.425Z,0
2017-04-10T19:29:42.998Z,0
2017-04-10T19:30:52.261Z,0
2017-04-10T19:32:01.820Z,0
2017-04-10T19:33:11.080Z,0
2017-04-10T19:34:20.317Z,0
2017-04-10T19:35:29.871Z,0
2017-04-10T19:36:38.480Z,0
2017-04-10T19:37:47.784Z,0
2017-04-10T19:38:57.387Z,0
2017-04-10T19:40:06.618Z,0
2017-04-10T19:41:16.167Z,0
2017-04-10T19:42:25.944Z,0
2017-04-10T19:43:35.397Z,0
2017-04-10T19:44:44.366Z,0
2017-04-10T19:45:53.605Z,0
2017-04-10T19:47:02.587Z,0
2017-04-10T19:48:11.621Z,0
2017-04-10T19:49:20.220Z,0
2017-04-10T19:50:29.211Z,0
2017-04-10T19:51:38.167Z,0
2017-04-10T19:52:46.773Z,0
2017-04-10T19:53:56.399Z,0
2017-04-10T19:55:05.457Z,0
2017-04-10T19:56:14.391Z,0
2017-04-10T19:57:24.159Z,0
2017-04-10T19:58:33.690Z,0
2017-04-10T19:59:42.318Z,0
2017-04-10T20:00:51.545Z,0
2017-04-10T20:02:00.832Z,0
2017-04-10T20:03:10.366Z,0
2017-04-10T20:04:19.626Z,0
2017-04-10T20:05:29.295Z,0
2017-04-10T20:06:38.367Z,0
2017-04-10T20:07:47.706Z,0
2017-04-10T20:08:56.330Z,0
2017-04-10T20:10:05.298Z,0
2017-04-10T20:11:13.891Z,0
2017-04-10T20:12:23.116Z,0
2017-04-10T20:13:32.340Z,0
2017-04-10T20:14:41.566Z,0
2017-04-10T20:15:50.472Z,0
2017-04-10T20:16:59.634Z,0
2017-04-10T20:18:08.217Z,0
2017-04-10T20:19:17.167Z,0
2017-04-10T20:20:25.765Z,0
2017-04-10T20:21:34.669Z,0
2017-04-10T20:22:43.252Z,0
2017-04-10T20:23:52.805Z,0
2017-04-10T20:25:01.717Z,0
2017-04-10T20:26:10.662Z,0
2017-04-10T20:27:20.459Z,0
2017-04-10T20:28:29.045Z,0
2017-04-10T20:29:38.593Z,0
2017-04-10T20:30:47.827Z,0
2017-04-10T20:31:56.420Z,0
2017-04-10T20:33:05.012Z,0
2017-04-10T20:34:14.557Z,0
2017-04-10T20:35:23.781Z,0
2017-04-10T20:36:32.391Z,0
2017-04-10T20:37:42.188Z,0
2017-04-10T20:38:50.773Z,0
2017-04-10T20:40:00.010Z,0
2017-04-10T20:41:09.241Z,0
2017-04-10T20:42:18.148Z,0
2017-04-10T20:43:27.055Z,0
2017-04-10T20:44:35.648Z,0
2017-04-10T20:45:44.559Z,0
2017-04-10T20:46:53.778Z,0
2017-04-10T20:48:02.684Z,0
2017-04-10T20:49:11.274Z,0
2017-04-10T20:50:20.502Z,0
2017-04-10T20:51:29.424Z,0
2017-04-10T20:52:38.332Z,0
2017-04-10T20:53:47.562Z,0
2017-04-10T20:54:56.781Z,0
2017-04-10T20:56:06.019Z,0
2017-04-10T20:57:15.247Z,0
2017-04-10T20:58:24.155Z,0
2017-04-10T20:59:33.377Z,0
2017-04-10T21:00:42.282Z,0
2017-04-10T21:01:51.499Z,0
2017-04-10T21:03:00.139Z,0
2017-04-10T21:04:09.038Z,0
2017-04-10T21:05:18.553Z,0
2017-04-10T21:06:27.869Z,0
2017-04-10T21:07:36.940Z,0
2017-04-10T21:08:46.442Z,0
2017-04-10T21:09:56.150Z,0
2017-04-10T21:11:05.579Z,0
2017-04-10T21:12:15.177Z,0
2017-04-10T21:13:23.843Z,0
2017-04-10T21:14:32.432Z,0
2017-04-10T21:15:41.664Z,0
2017-04-10T21:16:50.252Z,0
2017-04-10T21:17:59.471Z,0
2017-04-10T21:19:08.695Z,0
2017-04-10T21:20:17.938Z,0
2017-04-10T21:21:26.515Z,0
2017-04-10T21:22:35.739Z,0
2017-04-10T21:23:44.323Z,0
2017-04-10T21:24:53.228Z,0
2017-04-10T21:26:01.816Z,0
2017-04-10T21:27:11.032Z,0
2017-04-10T21:28:20.262Z,0
2017-04-10T21:29:28.847Z,0
2017-04-10T21:30:38.396Z,0
2017-04-10T21:31:47.625Z,0
2017-04-10T21:32:56.846Z,0
2017-04-10T21:34:05.746Z,0
2017-04-10T21:35:14.646Z,0
2017-04-10T21:36:23.870Z,0
2017-04-10T21:37:32.706Z,0
2017-04-10T21:38:41.287Z,0
2017-04-10T21:39:51.149Z,0
2017-04-10T21:41:00.699Z,0
2017-04-10T21:42:09.603Z,0
2017-04-10T21:43:18.505Z,0
2017-04-10T21:44:27.101Z,0
2017-04-10T21:45:36.326Z,0
2017-04-10T21:46:45.228Z,0
2017-04-10T21:47:54.441Z,0
2017-04-10T21:49:03.347Z,0
2017-04-10T21:50:12.887Z,0
2017-04-10T21:51:21.795Z,0
2017-04-10T21:52:30.390Z,0
2017-04-10T21:53:39.609Z,0
2017-04-10T21:54:49.194Z,0
2017-04-10T21:55:58.094Z,0
2017-04-10T21:57:06.677Z,0
2017-04-10T21:58:15.899Z,0
2017-04-10T21:59:24.806Z,0
2017-04-10T22:00:34.023Z,0
2017-04-10T22:01:42.919Z,0
2017-04-10T22:02:51.826Z,0
2017-04-10T22:04:00.728Z,0
2017-04-10T22:05:09.324Z,0
2017-04-10T22:06:18.227Z,0
2017-04-10T22:07:27.449Z,0
2017-04-10T22:08:36.354Z,0
2017-04-10T22:09:45.255Z,0
2017-04-10T22:10:54.163Z,0
2017-04-10T22:12:03.705Z,0
2017-04-10T22:13:12.927Z,0
2017-04-10T22:14:22.473Z,0
2017-04-10T22:15:32.015Z,0
2017-04-10T22:16:41.236Z,0
2017-04-10T22:17:50.454Z,0
2017-04-10T22:18:59.360Z,0
2017-04-10T22:20:07.954Z,0
2017-04-10T22:21:16.864Z,0
2017-04-10T22:22:25.772Z,0
2017-04-10T22:23:34.677Z,0
2017-04-10T22:24:43.578Z,0
2017-04-10T22:25:52.795Z,0
2017-04-10T22:27:02.025Z,0
2017-04-10T22:28:10.930Z,0
2017-04-10T22:29:19.838Z,0
2017-04-10T22:30:28.429Z,0
2017-04-10T22:31:38.291Z,0
2017-04-10T22:32:47.827Z,0
2017-04-10T22:33:56.744Z,0
2017-04-10T22:35:05.648Z,0
2017-04-10T22:36:14.880Z,0
2017-04-10T22:37:24.106Z,0
2017-04-10T22:38:33.010Z,0
2017-04-10T22:39:41.915Z,0
2017-04-10T22:40:50.815Z,0
2017-04-10T22:41:59.720Z,0
2017-04-10T22:43:08.937Z,0
2017-04-10T22:44:18.508Z,0
2017-04-10T22:45:27.087Z,0
2017-04-10T22:46:35.988Z,0
2017-04-10T22:47:44.893Z,0
2017-04-10T22:48:53.478Z,0
2017-04-10T22:50:02.382Z,0
2017-04-10T22:51:11.605Z,0
2017-04-10T22:52:20.511Z,0
2017-04-10T22:53:29.414Z,0
2017-04-10T22:54:38.314Z,0
2017-04-10T22:55:47.533Z,0
2017-04-10T22:56:57.071Z,0
2017-04-10T22:58:06.291Z,0
2017-04-10T22:59:15.192Z,0
2017-04-10T23:00:24.091Z,0
2017-04-10T23:01:32.991Z,0
2017-04-10T23:02:41.894Z,0
2017-04-10T23:03:51.044Z,0
2017-04-10T23:04:59.951Z,0
2017-04-10T23:06:09.491Z,0
2017-04-10T23:07:18.394Z,0
2017-04-10T23:08:27.930Z,0
2017-04-10T23:09:36.518Z,0
2017-04-10T23:10:45.736Z,0
2017-04-10T23:11:54.641Z,0
2017-04-10T23:13:03.856Z,0
2017-04-10T23:14:13.024Z,0
2017-04-10T23:15:21.924Z,0
2017-04-10T23:16:30.826Z,0
2017-04-10T23:17:40.049Z,0
2017-04-10T23:18:48.636Z,0
2017-04-10T23:19:57.853Z,0
2017-04-10T23:21:07.095Z,0
2017-04-10T23:22:16.003Z,0
2017-04-10T23:23:25.227Z,0
2017-04-10T23:24:34.069Z,0
2017-04-10T23:25:43.296Z,0
2017-04-10T23:26:52.199Z,0
2017-04-10T23:28:01.122Z,0
2017-04-10T23:29:10.022Z,0
2017-04-10T23:30:19.560Z,0
2017-04-10T23:31:28.467Z,0
2017-04-10T23:32:37.696Z,0
2017-04-10T23:33:47.234Z,0
2017-04-10T23:34:56.454Z,0
2017-04-10T23:36:05.039Z,0
2017-04-10T23:37:13.931Z,0
2017-04-10T23:38:23.154Z,0
2017-04-10T23:39:32.061Z,0
2017-04-10T23:40:40.964Z,0
2017-04-10T23:41:50.186Z,0
2017-04-10T23:42:59.092Z,0
2017-04-10T23:44:08.003Z,0
2017-04-10T23:45:17.221Z,0
2017-04-10T23:46:26.125Z,0
2017-04-10T23:47:35.030Z,0
2017-04-10T23:48:43.936Z,0
2017-04-10T23:49:52.850Z,0
2017-04-10T23:51:02.643Z,0
2017-04-10T23:52:11.233Z,0
2017-04-10T23:53:20.812Z,0
2017-04-10T23:54:29.714Z,0
2017-04-10T23:55:38.930Z,0
2017-04-10T23:56:47.834Z,0
2017-04-10T23:57:57.057Z,0
2017-04-10T23:59:06.273Z,0
